sensor_id;sensor_type;location;lat;lon;timestamp;P1;durP1;ratioP1;P2;durP2;ratioP2
63008;SDS011;49099;28.428;-16.488;2022-09-27T00:00:59;12.88;;;2.00;;
63008;SDS011;49099;28.428;-16.488;2022-09-27T00:03:27;10.15;;;2.00;;
63008;SDS011;49099;28.428;-16.488;2022-09-27T00:08:31;7.88;;;2.00;;
63008;SDS011;49099;28.428;-16.488;2022-09-27T00:11:00;10.23;;;1.92;;
63008;SDS011;49099;28.428;-16.488;2022-09-27T00:13:29;9.13;;;2.10;;
63008;SDS011;49099;28.428;-16.488;2022-09-27T00:15:57;10.13;;;1.98;;
63008;SDS011;49099;28.428;-16.488;2022-09-27T00:18:25;10.75;;;2.28;;
63008;SDS011;49099;28.428;-16.488;2022-09-27T00:20:52;11.70;;;2.05;;
63008;SDS011;49099;28.428;-16.488;2022-09-27T00:23:19;10.30;;;1.88;;
63008;SDS011;49099;28.428;-16.488;2022-09-27T00:25:56;7.38;;;1.77;;
63008;SDS011;49099;28.428;-16.488;2022-09-27T00:28:24;10.90;;;2.45;;
63008;SDS011;49099;28.428;-16.488;2022-09-27T00:30:52;8.75;;;2.03;;
63008;SDS011;49099;28.428;-16.488;2022-09-27T00:33:19;7.95;;;2.00;;
63008;SDS011;49099;28.428;-16.488;2022-09-27T00:35:46;12.50;;;2.03;;
63008;SDS011;49099;28.428;-16.488;2022-09-27T00:38:14;8.20;;;1.80;;
63008;SDS011;49099;28.428;-16.488;2022-09-27T00:40:41;9.50;;;1.88;;
63008;SDS011;49099;28.428;-16.488;2022-09-27T00:43:14;10.68;;;2.20;;
63008;SDS011;49099;28.428;-16.488;2022-09-27T00:46:02;12.07;;;2.00;;
63008;SDS011;49099;28.428;-16.488;2022-09-27T00:48:30;9.40;;;1.90;;
63008;SDS011;49099;28.428;-16.488;2022-09-27T00:51:02;6.80;;;1.60;;
63008;SDS011;49099;28.428;-16.488;2022-09-27T00:53:33;9.88;;;1.85;;
63008;SDS011;49099;28.428;-16.488;2022-09-27T00:56:05;10.40;;;1.83;;
63008;SDS011;49099;28.428;-16.488;2022-09-27T00:58:37;7.28;;;1.55;;
63008;SDS011;49099;28.428;-16.488;2022-09-27T01:01:08;6.07;;;1.52;;
63008;SDS011;49099;28.428;-16.488;2022-09-27T01:06:30;6.63;;;1.60;;
63008;SDS011;49099;28.428;-16.488;2022-09-27T01:08:58;8.32;;;1.67;;
63008;SDS011;49099;28.428;-16.488;2022-09-27T01:27:41;8.85;;;1.60;;
63008;SDS011;49099;28.428;-16.488;2022-09-27T01:42:11;8.15;;;1.50;;
63008;SDS011;49099;28.428;-16.488;2022-09-27T01:47:28;8.15;;;1.60;;
63008;SDS011;49099;28.428;-16.488;2022-09-27T01:50:07;11.45;;;2.10;;
63008;SDS011;49099;28.428;-16.488;2022-09-27T01:55:27;6.75;;;1.50;;
63008;SDS011;49099;28.428;-16.488;2022-09-27T01:57:59;10.85;;;1.90;;
63008;SDS011;49099;28.428;-16.488;2022-09-27T02:00:54;8.93;;;1.88;;
63008;SDS011;49099;28.428;-16.488;2022-09-27T02:03:24;9.68;;;2.20;;
63008;SDS011;49099;28.428;-16.488;2022-09-27T02:05:58;8.48;;;2.10;;
63008;SDS011;49099;28.428;-16.488;2022-09-27T02:11:18;8.57;;;1.80;;
63008;SDS011;49099;28.428;-16.488;2022-09-27T02:16:17;8.85;;;2.05;;
63008;SDS011;49099;28.428;-16.488;2022-09-27T02:22:25;16.00;;;2.53;;
63008;SDS011;49099;28.428;-16.488;2022-09-27T02:24:39;8.38;;;1.98;;
63008;SDS011;49099;28.428;-16.488;2022-09-27T02:27:13;12.18;;;2.28;;
63008;SDS011;49099;28.428;-16.488;2022-09-27T02:29:48;11.88;;;2.10;;
63008;SDS011;49099;28.428;-16.488;2022-09-27T02:32:24;8.35;;;2.00;;
63008;SDS011;49099;28.428;-16.488;2022-09-27T02:34:53;5.57;;;1.67;;
63008;SDS011;49099;28.428;-16.488;2022-09-27T02:37:23;7.60;;;1.90;;
63008;SDS011;49099;28.428;-16.488;2022-09-27T02:39:50;9.50;;;2.10;;
63008;SDS011;49099;28.428;-16.488;2022-09-27T02:42:17;12.13;;;2.50;;
63008;SDS011;49099;28.428;-16.488;2022-09-27T02:44:44;11.05;;;2.22;;
63008;SDS011;49099;28.428;-16.488;2022-09-27T02:47:34;11.13;;;2.33;;
63008;SDS011;49099;28.428;-16.488;2022-09-27T02:56:19;9.10;;;2.03;;
63008;SDS011;49099;28.428;-16.488;2022-09-27T02:59:30;9.27;;;1.92;;
63008;SDS011;49099;28.428;-16.488;2022-09-27T03:02:05;11.98;;;2.03;;
63008;SDS011;49099;28.428;-16.488;2022-09-27T03:04:45;9.18;;;1.92;;
63008;SDS011;49099;28.428;-16.488;2022-09-27T03:07:15;8.45;;;1.80;;
63008;SDS011;49099;28.428;-16.488;2022-09-27T03:09:44;6.90;;;1.90;;
63008;SDS011;49099;28.428;-16.488;2022-09-27T03:12:14;8.32;;;1.77;;
63008;SDS011;49099;28.428;-16.488;2022-09-27T03:14:48;9.95;;;2.10;;
63008;SDS011;49099;28.428;-16.488;2022-09-27T03:17:15;8.30;;;2.05;;
63008;SDS011;49099;28.428;-16.488;2022-09-27T03:19:42;10.20;;;2.53;;
63008;SDS011;49099;28.428;-16.488;2022-09-27T03:22:09;11.98;;;2.35;;
63008;SDS011;49099;28.428;-16.488;2022-09-27T03:24:36;10.40;;;2.17;;
63008;SDS011;49099;28.428;-16.488;2022-09-27T03:27:03;7.43;;;1.80;;
63008;SDS011;49099;28.428;-16.488;2022-09-27T03:29:31;9.60;;;1.90;;
63008;SDS011;49099;28.428;-16.488;2022-09-27T03:31:58;15.35;;;2.50;;
63008;SDS011;49099;28.428;-16.488;2022-09-27T03:34:25;8.63;;;2.22;;
63008;SDS011;49099;28.428;-16.488;2022-09-27T03:36:52;12.75;;;2.10;;
63008;SDS011;49099;28.428;-16.488;2022-09-27T03:39:19;10.25;;;2.28;;
63008;SDS011;49099;28.428;-16.488;2022-09-27T03:41:47;11.43;;;1.95;;
63008;SDS011;49099;28.428;-16.488;2022-09-27T03:44:14;11.82;;;2.55;;
63008;SDS011;49099;28.428;-16.488;2022-09-27T03:46:41;11.48;;;2.38;;
63008;SDS011;49099;28.428;-16.488;2022-09-27T03:49:08;12.82;;;2.38;;
63008;SDS011;49099;28.428;-16.488;2022-09-27T03:51:35;9.98;;;1.95;;
63008;SDS011;49099;28.428;-16.488;2022-09-27T03:54:02;15.55;;;2.40;;
63008;SDS011;49099;28.428;-16.488;2022-09-27T03:56:29;9.43;;;2.05;;
63008;SDS011;49099;28.428;-16.488;2022-09-27T03:58:56;10.07;;;2.10;;
63008;SDS011;49099;28.428;-16.488;2022-09-27T04:01:23;8.27;;;1.98;;
63008;SDS011;49099;28.428;-16.488;2022-09-27T04:03:51;19.48;;;2.40;;
63008;SDS011;49099;28.428;-16.488;2022-09-27T04:06:19;11.70;;;2.38;;
63008;SDS011;49099;28.428;-16.488;2022-09-27T04:08:46;11.27;;;2.60;;
63008;SDS011;49099;28.428;-16.488;2022-09-27T04:11:13;13.23;;;2.58;;
63008;SDS011;49099;28.428;-16.488;2022-09-27T04:13:40;15.40;;;2.28;;
63008;SDS011;49099;28.428;-16.488;2022-09-27T04:16:10;12.23;;;2.50;;
63008;SDS011;49099;28.428;-16.488;2022-09-27T04:18:37;10.60;;;2.70;;
63008;SDS011;49099;28.428;-16.488;2022-09-27T04:21:04;13.38;;;2.60;;
63008;SDS011;49099;28.428;-16.488;2022-09-27T04:23:31;21.13;;;3.28;;
63008;SDS011;49099;28.428;-16.488;2022-09-27T04:25:59;13.50;;;2.70;;
63008;SDS011;49099;28.428;-16.488;2022-09-27T04:28:26;20.02;;;3.60;;
63008;SDS011;49099;28.428;-16.488;2022-09-27T04:30:55;13.32;;;2.83;;
63008;SDS011;49099;28.428;-16.488;2022-09-27T04:33:22;18.75;;;3.22;;
63008;SDS011;49099;28.428;-16.488;2022-09-27T04:35:49;16.67;;;3.17;;
63008;SDS011;49099;28.428;-16.488;2022-09-27T04:38:35;17.15;;;2.97;;
63008;SDS011;49099;28.428;-16.488;2022-09-27T04:41:02;11.30;;;2.88;;
63008;SDS011;49099;28.428;-16.488;2022-09-27T04:43:29;9.02;;;2.35;;
63008;SDS011;49099;28.428;-16.488;2022-09-27T04:45:56;11.07;;;2.50;;
63008;SDS011;49099;28.428;-16.488;2022-09-27T04:48:23;14.73;;;2.50;;
63008;SDS011;49099;28.428;-16.488;2022-09-27T04:50:55;10.45;;;2.50;;
63008;SDS011;49099;28.428;-16.488;2022-09-27T04:53:28;8.93;;;2.33;;
63008;SDS011;49099;28.428;-16.488;2022-09-27T04:55:55;10.80;;;2.20;;
63008;SDS011;49099;28.428;-16.488;2022-09-27T04:58:23;16.35;;;2.63;;
63008;SDS011;49099;28.428;-16.488;2022-09-27T05:00:50;11.27;;;2.25;;
63008;SDS011;49099;28.428;-16.488;2022-09-27T05:03:21;14.77;;;3.08;;
63008;SDS011;49099;28.428;-16.488;2022-09-27T05:05:48;9.50;;;2.20;;
63008;SDS011;49099;28.428;-16.488;2022-09-27T05:08:16;15.52;;;2.58;;
63008;SDS011;49099;28.428;-16.488;2022-09-27T05:10:43;11.70;;;2.30;;
63008;SDS011;49099;28.428;-16.488;2022-09-27T05:13:10;11.98;;;2.50;;
63008;SDS011;49099;28.428;-16.488;2022-09-27T05:15:37;11.98;;;2.33;;
63008;SDS011;49099;28.428;-16.488;2022-09-27T05:18:05;13.98;;;2.28;;
63008;SDS011;49099;28.428;-16.488;2022-09-27T05:20:33;18.23;;;2.88;;
63008;SDS011;49099;28.428;-16.488;2022-09-27T05:23:02;12.40;;;2.28;;
63008;SDS011;49099;28.428;-16.488;2022-09-27T05:25:33;16.67;;;2.85;;
63008;SDS011;49099;28.428;-16.488;2022-09-27T05:28:00;16.58;;;2.80;;
63008;SDS011;49099;28.428;-16.488;2022-09-27T05:30:27;18.67;;;2.47;;
63008;SDS011;49099;28.428;-16.488;2022-09-27T05:32:54;12.88;;;2.55;;
63008;SDS011;49099;28.428;-16.488;2022-09-27T05:35:22;13.32;;;2.50;;
63008;SDS011;49099;28.428;-16.488;2022-09-27T05:37:50;10.73;;;2.00;;
63008;SDS011;49099;28.428;-16.488;2022-09-27T05:40:18;10.45;;;2.35;;
63008;SDS011;49099;28.428;-16.488;2022-09-27T05:43:06;12.07;;;2.65;;
63008;SDS011;49099;28.428;-16.488;2022-09-27T05:45:34;9.77;;;2.20;;
63008;SDS011;49099;28.428;-16.488;2022-09-27T05:48:01;13.63;;;3.00;;
63008;SDS011;49099;28.428;-16.488;2022-09-27T05:50:28;12.02;;;2.75;;
63008;SDS011;49099;28.428;-16.488;2022-09-27T05:52:55;11.18;;;2.35;;
63008;SDS011;49099;28.428;-16.488;2022-09-27T05:55:23;11.80;;;2.28;;
63008;SDS011;49099;28.428;-16.488;2022-09-27T05:57:54;13.55;;;2.42;;
63008;SDS011;49099;28.428;-16.488;2022-09-27T06:00:23;15.30;;;2.75;;
63008;SDS011;49099;28.428;-16.488;2022-09-27T06:02:52;17.50;;;2.65;;
63008;SDS011;49099;28.428;-16.488;2022-09-27T06:05:20;20.55;;;2.97;;
63008;SDS011;49099;28.428;-16.488;2022-09-27T06:07:48;14.73;;;2.78;;
63008;SDS011;49099;28.428;-16.488;2022-09-27T06:10:16;12.65;;;2.55;;
63008;SDS011;49099;28.428;-16.488;2022-09-27T06:12:44;14.82;;;2.63;;
63008;SDS011;49099;28.428;-16.488;2022-09-27T06:15:11;13.77;;;2.72;;
63008;SDS011;49099;28.428;-16.488;2022-09-27T06:17:40;11.60;;;2.45;;
63008;SDS011;49099;28.428;-16.488;2022-09-27T06:20:07;16.55;;;2.80;;
63008;SDS011;49099;28.428;-16.488;2022-09-27T06:22:35;11.68;;;2.80;;
63008;SDS011;49099;28.428;-16.488;2022-09-27T06:25:03;11.02;;;2.40;;
63008;SDS011;49099;28.428;-16.488;2022-09-27T06:27:31;10.88;;;2.40;;
63008;SDS011;49099;28.428;-16.488;2022-09-27T06:29:58;10.25;;;2.40;;
63008;SDS011;49099;28.428;-16.488;2022-09-27T06:32:25;11.70;;;2.30;;
63008;SDS011;49099;28.428;-16.488;2022-09-27T06:34:52;11.70;;;2.00;;
63008;SDS011;49099;28.428;-16.488;2022-09-27T06:37:19;9.82;;;2.30;;
63008;SDS011;49099;28.428;-16.488;2022-09-27T06:39:50;6.43;;;1.85;;
63008;SDS011;49099;28.428;-16.488;2022-09-27T06:42:18;7.90;;;2.30;;
63008;SDS011;49099;28.428;-16.488;2022-09-27T06:44:46;9.73;;;1.88;;
63008;SDS011;49099;28.428;-16.488;2022-09-27T06:47:16;11.52;;;2.13;;
63008;SDS011;49099;28.428;-16.488;2022-09-27T06:49:43;11.07;;;2.50;;
63008;SDS011;49099;28.428;-16.488;2022-09-27T06:52:10;12.70;;;2.28;;
63008;SDS011;49099;28.428;-16.488;2022-09-27T06:54:37;7.75;;;1.75;;
63008;SDS011;49099;28.428;-16.488;2022-09-27T06:57:04;8.15;;;2.08;;
63008;SDS011;49099;28.428;-16.488;2022-09-27T06:59:31;12.75;;;1.90;;
63008;SDS011;49099;28.428;-16.488;2022-09-27T07:02:17;7.68;;;1.80;;
63008;SDS011;49099;28.428;-16.488;2022-09-27T07:04:44;6.53;;;1.83;;
63008;SDS011;49099;28.428;-16.488;2022-09-27T07:07:11;7.90;;;1.88;;
63008;SDS011;49099;28.428;-16.488;2022-09-27T07:09:39;9.23;;;1.52;;
63008;SDS011;49099;28.428;-16.488;2022-09-27T07:12:06;6.95;;;1.90;;
63008;SDS011;49099;28.428;-16.488;2022-09-27T07:14:33;8.20;;;1.58;;
63008;SDS011;49099;28.428;-16.488;2022-09-27T07:17:00;10.35;;;2.00;;
63008;SDS011;49099;28.428;-16.488;2022-09-27T07:19:27;9.88;;;2.03;;
63008;SDS011;49099;28.428;-16.488;2022-09-27T07:21:54;6.15;;;1.70;;
63008;SDS011;49099;28.428;-16.488;2022-09-27T07:24:22;10.50;;;2.35;;
63008;SDS011;49099;28.428;-16.488;2022-09-27T07:26:49;8.48;;;1.67;;
63008;SDS011;49099;28.428;-16.488;2022-09-27T07:29:16;11.10;;;1.73;;
63008;SDS011;49099;28.428;-16.488;2022-09-27T07:31:43;13.15;;;2.13;;
63008;SDS011;49099;28.428;-16.488;2022-09-27T07:34:10;14.05;;;2.40;;
63008;SDS011;49099;28.428;-16.488;2022-09-27T07:36:37;12.52;;;2.22;;
63008;SDS011;49099;28.428;-16.488;2022-09-27T07:39:05;12.80;;;2.38;;
63008;SDS011;49099;28.428;-16.488;2022-09-27T07:41:32;18.52;;;2.50;;
63008;SDS011;49099;28.428;-16.488;2022-09-27T07:43:59;9.45;;;2.22;;
63008;SDS011;49099;28.428;-16.488;2022-09-27T07:46:28;13.05;;;2.30;;
63008;SDS011;49099;28.428;-16.488;2022-09-27T07:48:56;13.63;;;2.10;;
63008;SDS011;49099;28.428;-16.488;2022-09-27T07:51:24;16.50;;;3.03;;
63008;SDS011;49099;28.428;-16.488;2022-09-27T07:53:51;19.35;;;2.58;;
63008;SDS011;49099;28.428;-16.488;2022-09-27T07:56:18;13.00;;;2.78;;
63008;SDS011;49099;28.428;-16.488;2022-09-27T07:58:45;12.30;;;3.08;;
63008;SDS011;49099;28.428;-16.488;2022-09-27T08:01:12;16.20;;;2.85;;
63008;SDS011;49099;28.428;-16.488;2022-09-27T08:03:39;14.50;;;2.63;;
63008;SDS011;49099;28.428;-16.488;2022-09-27T08:06:07;10.63;;;2.65;;
63008;SDS011;49099;28.428;-16.488;2022-09-27T08:08:34;15.45;;;3.00;;
63008;SDS011;49099;28.428;-16.488;2022-09-27T08:11:09;13.80;;;2.28;;
63008;SDS011;49099;28.428;-16.488;2022-09-27T08:13:39;11.65;;;2.05;;
63008;SDS011;49099;28.428;-16.488;2022-09-27T08:16:07;7.40;;;1.95;;
63008;SDS011;49099;28.428;-16.488;2022-09-27T08:18:34;9.35;;;1.95;;
63008;SDS011;49099;28.428;-16.488;2022-09-27T08:21:01;10.18;;;2.20;;
63008;SDS011;49099;28.428;-16.488;2022-09-27T08:23:29;8.70;;;2.17;;
63008;SDS011;49099;28.428;-16.488;2022-09-27T08:25:57;6.60;;;2.03;;
63008;SDS011;49099;28.428;-16.488;2022-09-27T08:28:25;7.88;;;1.75;;
63008;SDS011;49099;28.428;-16.488;2022-09-27T08:30:53;9.25;;;1.95;;
63008;SDS011;49099;28.428;-16.488;2022-09-27T08:33:20;16.30;;;2.80;;
63008;SDS011;49099;28.428;-16.488;2022-09-27T08:35:47;11.00;;;2.25;;
63008;SDS011;49099;28.428;-16.488;2022-09-27T08:38:14;14.02;;;2.50;;
63008;SDS011;49099;28.428;-16.488;2022-09-27T08:43:35;12.27;;;2.15;;
63008;SDS011;49099;28.428;-16.488;2022-09-27T08:51:32;15.40;;;2.38;;
63008;SDS011;49099;28.428;-16.488;2022-09-27T08:56:37;27.77;;;3.28;;
63008;SDS011;49099;28.428;-16.488;2022-09-27T08:59:11;18.85;;;3.53;;
63008;SDS011;49099;28.428;-16.488;2022-09-27T09:01:41;23.13;;;3.92;;
63008;SDS011;49099;28.428;-16.488;2022-09-27T09:04:08;24.45;;;3.67;;
63008;SDS011;49099;28.428;-16.488;2022-09-27T09:17:54;21.83;;;3.60;;
63008;SDS011;49099;28.428;-16.488;2022-09-27T09:25:48;16.90;;;2.80;;
63008;SDS011;49099;28.428;-16.488;2022-09-27T09:34:46;19.95;;;3.33;;
63008;SDS011;49099;28.428;-16.488;2022-09-27T09:39:49;21.83;;;3.72;;
63008;SDS011;49099;28.428;-16.488;2022-09-27T09:42:24;21.08;;;3.55;;
63008;SDS011;49099;28.428;-16.488;2022-09-27T09:47:47;34.75;;;5.38;;
63008;SDS011;49099;28.428;-16.488;2022-09-27T09:50:21;25.10;;;4.60;;
63008;SDS011;49099;28.428;-16.488;2022-09-27T09:55:42;21.63;;;3.90;;
63008;SDS011;49099;28.428;-16.488;2022-09-27T10:00:45;16.65;;;3.05;;
63008;SDS011;49099;28.428;-16.488;2022-09-27T10:03:14;22.15;;;3.28;;
63008;SDS011;49099;28.428;-16.488;2022-09-27T10:05:42;30.15;;;4.88;;
63008;SDS011;49099;28.428;-16.488;2022-09-27T10:08:16;36.47;;;5.25;;
63008;SDS011;49099;28.428;-16.488;2022-09-27T10:10:45;27.52;;;4.22;;
63008;SDS011;49099;28.428;-16.488;2022-09-27T10:13:14;22.08;;;3.92;;
63008;SDS011;49099;28.428;-16.488;2022-09-27T10:15:43;29.73;;;4.78;;
63008;SDS011;49099;28.428;-16.488;2022-09-27T10:18:28;23.27;;;4.00;;
63008;SDS011;49099;28.428;-16.488;2022-09-27T10:20:57;25.23;;;4.13;;
63008;SDS011;49099;28.428;-16.488;2022-09-27T10:23:27;14.85;;;2.85;;
63008;SDS011;49099;28.428;-16.488;2022-09-27T10:25:59;19.33;;;2.88;;
63008;SDS011;49099;28.428;-16.488;2022-09-27T10:31:04;26.40;;;4.28;;
63008;SDS011;49099;28.428;-16.488;2022-09-27T10:33:38;32.60;;;5.50;;
63008;SDS011;49099;28.428;-16.488;2022-09-27T10:36:25;29.35;;;5.88;;
63008;SDS011;49099;28.428;-16.488;2022-09-27T10:39:03;26.67;;;4.80;;
63008;SDS011;49099;28.428;-16.488;2022-09-27T10:41:35;31.15;;;5.68;;
63008;SDS011;49099;28.428;-16.488;2022-09-27T10:46:43;41.90;;;5.93;;
63008;SDS011;49099;28.428;-16.488;2022-09-27T10:49:37;31.95;;;5.05;;
63008;SDS011;49099;28.428;-16.488;2022-09-27T10:52:07;36.42;;;5.60;;
63008;SDS011;49099;28.428;-16.488;2022-09-27T10:54:41;39.08;;;5.90;;
63008;SDS011;49099;28.428;-16.488;2022-09-27T10:57:21;35.72;;;5.40;;
63008;SDS011;49099;28.428;-16.488;2022-09-27T11:02:26;43.38;;;5.45;;
63008;SDS011;49099;28.428;-16.488;2022-09-27T11:05:02;30.52;;;5.18;;
63008;SDS011;49099;28.428;-16.488;2022-09-27T11:10:01;17.88;;;4.03;;
63008;SDS011;49099;28.428;-16.488;2022-09-27T11:12:29;25.10;;;4.10;;
63008;SDS011;49099;28.428;-16.488;2022-09-27T11:15:01;27.50;;;3.92;;
63008;SDS011;49099;28.428;-16.488;2022-09-27T11:17:42;39.55;;;6.15;;
63008;SDS011;49099;28.428;-16.488;2022-09-27T11:20:30;29.00;;;4.93;;
63008;SDS011;49099;28.428;-16.488;2022-09-27T11:28:42;35.63;;;4.88;;
63008;SDS011;49099;28.428;-16.488;2022-09-27T11:31:44;29.75;;;4.00;;
63008;SDS011;49099;28.428;-16.488;2022-09-27T11:37:15;19.17;;;3.38;;
63008;SDS011;49099;28.428;-16.488;2022-09-27T11:48:40;15.93;;;3.30;;
63008;SDS011;49099;28.428;-16.488;2022-09-27T11:53:49;21.15;;;3.03;;
63008;SDS011;49099;28.428;-16.488;2022-09-27T12:09:47;19.40;;;3.47;;
63008;SDS011;49099;28.428;-16.488;2022-09-27T12:12:22;16.77;;;3.20;;
63008;SDS011;49099;28.428;-16.488;2022-09-27T12:14:53;13.07;;;2.83;;
63008;SDS011;49099;28.428;-16.488;2022-09-27T12:17:30;10.30;;;2.72;;
63008;SDS011;49099;28.428;-16.488;2022-09-27T12:20:14;12.60;;;2.45;;
63008;SDS011;49099;28.428;-16.488;2022-09-27T12:22:53;17.90;;;3.42;;
63008;SDS011;49099;28.428;-16.488;2022-09-27T12:25:28;20.75;;;3.35;;
63008;SDS011;49099;28.428;-16.488;2022-09-27T12:28:02;8.70;;;2.10;;
63008;SDS011;49099;28.428;-16.488;2022-09-27T12:30:36;16.25;;;2.50;;
63008;SDS011;49099;28.428;-16.488;2022-09-27T12:33:22;12.90;;;2.50;;
63008;SDS011;49099;28.428;-16.488;2022-09-27T12:35:59;14.02;;;2.53;;
63008;SDS011;49099;28.428;-16.488;2022-09-27T12:38:44;13.57;;;2.25;;
63008;SDS011;49099;28.428;-16.488;2022-09-27T12:41:18;11.60;;;2.28;;
63008;SDS011;49099;28.428;-16.488;2022-09-27T12:43:48;15.32;;;2.22;;
63008;SDS011;49099;28.428;-16.488;2022-09-27T12:52:43;13.35;;;2.92;;
63008;SDS011;49099;28.428;-16.488;2022-09-27T12:58:36;10.75;;;2.30;;
63008;SDS011;49099;28.428;-16.488;2022-09-27T13:03:58;12.50;;;2.65;;
63008;SDS011;49099;28.428;-16.488;2022-09-27T13:14:29;13.27;;;2.85;;
63008;SDS011;49099;28.428;-16.488;2022-09-27T13:17:01;12.60;;;2.83;;
63008;SDS011;49099;28.428;-16.488;2022-09-27T13:22:02;18.95;;;3.10;;
63008;SDS011;49099;28.428;-16.488;2022-09-27T13:24:38;15.57;;;2.70;;
63008;SDS011;49099;28.428;-16.488;2022-09-27T13:29:49;17.83;;;3.30;;
63008;SDS011;49099;28.428;-16.488;2022-09-27T13:32:17;16.30;;;3.28;;
63008;SDS011;49099;28.428;-16.488;2022-09-27T13:34:55;16.98;;;3.53;;
63008;SDS011;49099;28.428;-16.488;2022-09-27T13:37:51;21.77;;;3.88;;
63008;SDS011;49099;28.428;-16.488;2022-09-27T13:40:28;19.27;;;3.75;;
63008;SDS011;49099;28.428;-16.488;2022-09-27T13:45:38;13.90;;;3.05;;
63008;SDS011;49099;28.428;-16.488;2022-09-27T13:48:15;17.88;;;3.08;;
63008;SDS011;49099;28.428;-16.488;2022-09-27T13:50:55;16.42;;;2.45;;
63008;SDS011;49099;28.428;-16.488;2022-09-27T13:53:29;15.20;;;2.88;;
63008;SDS011;49099;28.428;-16.488;2022-09-27T13:56:00;13.80;;;2.78;;
63008;SDS011;49099;28.428;-16.488;2022-09-27T13:58:37;13.85;;;2.92;;
63008;SDS011;49099;28.428;-16.488;2022-09-27T14:01:38;13.85;;;2.95;;
63008;SDS011;49099;28.428;-16.488;2022-09-27T14:06:57;25.75;;;3.70;;
63008;SDS011;49099;28.428;-16.488;2022-09-27T14:12:00;17.40;;;3.22;;
63008;SDS011;49099;28.428;-16.488;2022-09-27T14:14:31;15.98;;;3.45;;
63008;SDS011;49099;28.428;-16.488;2022-09-27T14:16:59;14.13;;;3.25;;
63008;SDS011;49099;28.428;-16.488;2022-09-27T14:19:28;15.00;;;3.10;;
63008;SDS011;49099;28.428;-16.488;2022-09-27T14:21:56;20.50;;;3.28;;
63008;SDS011;49099;28.428;-16.488;2022-09-27T14:24:25;14.25;;;3.10;;
63008;SDS011;49099;28.428;-16.488;2022-09-27T14:27:12;17.67;;;3.28;;
63008;SDS011;49099;28.428;-16.488;2022-09-27T14:29:44;16.85;;;3.25;;
63008;SDS011;49099;28.428;-16.488;2022-09-27T14:32:24;23.98;;;3.63;;
63008;SDS011;49099;28.428;-16.488;2022-09-27T14:37:58;19.83;;;3.38;;
63008;SDS011;49099;28.428;-16.488;2022-09-27T14:43:19;20.20;;;3.33;;
63008;SDS011;49099;28.428;-16.488;2022-09-27T14:45:48;20.75;;;3.42;;
63008;SDS011;49099;28.428;-16.488;2022-09-27T14:50:58;16.80;;;3.33;;
63008;SDS011;49099;28.428;-16.488;2022-09-27T14:53:34;15.15;;;2.63;;
63008;SDS011;49099;28.428;-16.488;2022-09-27T14:56:02;19.60;;;3.33;;
63008;SDS011;49099;28.428;-16.488;2022-09-27T14:58:32;13.50;;;2.58;;
63008;SDS011;49099;28.428;-16.488;2022-09-27T15:01:17;13.50;;;2.40;;
63008;SDS011;49099;28.428;-16.488;2022-09-27T15:03:49;12.30;;;2.55;;
63008;SDS011;49099;28.428;-16.488;2022-09-27T15:06:16;11.20;;;2.42;;
63008;SDS011;49099;28.428;-16.488;2022-09-27T15:08:45;12.90;;;2.65;;
63008;SDS011;49099;28.428;-16.488;2022-09-27T15:11:15;10.75;;;2.50;;
63008;SDS011;49099;28.428;-16.488;2022-09-27T15:13:45;16.77;;;2.78;;
63008;SDS011;49099;28.428;-16.488;2022-09-27T15:16:16;17.25;;;2.67;;
63008;SDS011;49099;28.428;-16.488;2022-09-27T15:18:58;12.57;;;2.75;;
63008;SDS011;49099;28.428;-16.488;2022-09-27T15:21:33;16.42;;;2.95;;
63008;SDS011;49099;28.428;-16.488;2022-09-27T15:24:02;15.07;;;2.88;;
63008;SDS011;49099;28.428;-16.488;2022-09-27T15:29:01;12.77;;;2.75;;
63008;SDS011;49099;28.428;-16.488;2022-09-27T15:31:30;10.77;;;2.60;;
63008;SDS011;49099;28.428;-16.488;2022-09-27T15:34:00;12.13;;;2.28;;
63008;SDS011;49099;28.428;-16.488;2022-09-27T15:36:50;11.70;;;2.55;;
63008;SDS011;49099;28.428;-16.488;2022-09-27T15:39:26;12.65;;;2.53;;
63008;SDS011;49099;28.428;-16.488;2022-09-27T15:42:06;11.50;;;2.30;;
63008;SDS011;49099;28.428;-16.488;2022-09-27T15:44:35;9.52;;;2.30;;
63008;SDS011;49099;28.428;-16.488;2022-09-27T15:49:57;15.75;;;2.80;;
63008;SDS011;49099;28.428;-16.488;2022-09-27T15:52:41;14.48;;;3.08;;
63008;SDS011;49099;28.428;-16.488;2022-09-27T15:55:10;15.07;;;3.05;;
63008;SDS011;49099;28.428;-16.488;2022-09-27T15:57:38;17.67;;;3.28;;
63008;SDS011;49099;28.428;-16.488;2022-09-27T16:00:09;15.10;;;3.30;;
63008;SDS011;49099;28.428;-16.488;2022-09-27T16:02:39;16.17;;;3.38;;
63008;SDS011;49099;28.428;-16.488;2022-09-27T16:05:06;21.38;;;4.05;;
63008;SDS011;49099;28.428;-16.488;2022-09-27T16:07:33;12.65;;;3.03;;
63008;SDS011;49099;28.428;-16.488;2022-09-27T16:10:00;16.65;;;3.90;;
63008;SDS011;49099;28.428;-16.488;2022-09-27T16:12:28;21.75;;;3.97;;
63008;SDS011;49099;28.428;-16.488;2022-09-27T16:14:56;23.25;;;3.70;;
63008;SDS011;49099;28.428;-16.488;2022-09-27T16:17:23;12.77;;;2.67;;
63008;SDS011;49099;28.428;-16.488;2022-09-27T16:19:50;15.32;;;2.97;;
63008;SDS011;49099;28.428;-16.488;2022-09-27T16:22:17;17.88;;;3.22;;
63008;SDS011;49099;28.428;-16.488;2022-09-27T16:24:44;16.60;;;2.90;;
63008;SDS011;49099;28.428;-16.488;2022-09-27T16:27:22;16.67;;;3.10;;
63008;SDS011;49099;28.428;-16.488;2022-09-27T16:29:50;17.13;;;3.60;;
63008;SDS011;49099;28.428;-16.488;2022-09-27T16:32:17;13.93;;;3.17;;
63008;SDS011;49099;28.428;-16.488;2022-09-27T16:34:44;17.60;;;3.15;;
63008;SDS011;49099;28.428;-16.488;2022-09-27T16:37:11;16.33;;;3.65;;
63008;SDS011;49099;28.428;-16.488;2022-09-27T16:39:38;22.25;;;3.42;;
63008;SDS011;49099;28.428;-16.488;2022-09-27T16:42:05;18.23;;;3.30;;
63008;SDS011;49099;28.428;-16.488;2022-09-27T16:44:34;27.65;;;4.60;;
63008;SDS011;49099;28.428;-16.488;2022-09-27T16:47:04;19.85;;;3.50;;
63008;SDS011;49099;28.428;-16.488;2022-09-27T16:49:33;17.83;;;3.70;;
63008;SDS011;49099;28.428;-16.488;2022-09-27T16:52:18;16.52;;;3.38;;
63008;SDS011;49099;28.428;-16.488;2022-09-27T16:54:46;20.40;;;3.85;;
63008;SDS011;49099;28.428;-16.488;2022-09-27T16:57:13;14.43;;;3.00;;
63008;SDS011;49099;28.428;-16.488;2022-09-27T16:59:40;20.05;;;3.33;;
63008;SDS011;49099;28.428;-16.488;2022-09-27T17:02:07;20.30;;;3.97;;
63008;SDS011;49099;28.428;-16.488;2022-09-27T17:04:35;23.15;;;3.85;;
63008;SDS011;49099;28.428;-16.488;2022-09-27T17:07:02;19.08;;;3.10;;
63008;SDS011;49099;28.428;-16.488;2022-09-27T17:09:29;17.63;;;3.80;;
63008;SDS011;49099;28.428;-16.488;2022-09-27T17:11:56;30.92;;;5.30;;
63008;SDS011;49099;28.428;-16.488;2022-09-27T17:14:23;24.52;;;3.90;;
63008;SDS011;49099;28.428;-16.488;2022-09-27T17:16:52;20.65;;;3.38;;
63008;SDS011;49099;28.428;-16.488;2022-09-27T17:19:19;20.85;;;4.20;;
63008;SDS011;49099;28.428;-16.488;2022-09-27T17:21:48;31.90;;;4.82;;
63008;SDS011;49099;28.428;-16.488;2022-09-27T17:24:15;27.50;;;5.15;;
63008;SDS011;49099;28.428;-16.488;2022-09-27T17:26:43;26.00;;;4.03;;
63008;SDS011;49099;28.428;-16.488;2022-09-27T17:29:11;47.10;;;7.30;;
63008;SDS011;49099;28.428;-16.488;2022-09-27T17:31:38;29.58;;;5.57;;
63008;SDS011;49099;28.428;-16.488;2022-09-27T17:34:07;30.30;;;5.03;;
63008;SDS011;49099;28.428;-16.488;2022-09-27T17:36:41;25.73;;;4.68;;
63008;SDS011;49099;28.428;-16.488;2022-09-27T17:39:11;34.08;;;5.80;;
63008;SDS011;49099;28.428;-16.488;2022-09-27T17:41:40;25.35;;;4.60;;